createdAt,value
2016-12-04T00:00:25.791Z,62.72
2016-12-04T00:01:26.108Z,62.62
2016-12-04T00:02:25.804Z,62.72
2016-12-04T00:03:25.818Z,62.72
2016-12-04T00:04:25.834Z,63.1
2016-12-04T00:05:26.160Z,62.91
2016-12-04T00:06:25.858Z,63.76
2016-12-04T00:07:25.869Z,63.67
2016-12-04T00:08:25.883Z,63.29
2016-12-04T00:09:26.212Z,63.29
2016-12-04T00:10:25.908Z,64.04
2016-12-04T00:11:26.237Z,64.49
2016-12-04T00:12:25.934Z,64.14
2016-12-04T00:13:26.265Z,64.42
2016-12-04T00:14:26.272Z,64.33
2016-12-04T00:15:25.972Z,64.33
2016-12-04T00:16:26.297Z,63.95
2016-12-04T00:17:26.321Z,63.85
2016-12-04T00:18:26.322Z,63.1
2016-12-04T00:19:26.021Z,62.82
2016-12-04T00:20:26.348Z,62.15
2016-12-04T00:21:26.067Z,62.05
2016-12-04T00:22:26.403Z,62.53
2016-12-04T00:23:26.070Z,63.01
2016-12-04T00:24:26.398Z,62.82
2016-12-04T00:25:26.443Z,63.1
2016-12-04T00:26:26.421Z,63.29
2016-12-04T00:27:26.121Z,63.01
2016-12-04T00:28:26.139Z,63.39
2016-12-04T00:29:26.147Z,63.1
2016-12-04T00:30:26.476Z,62.91
2016-12-04T00:31:26.517Z,62.34
2016-12-04T00:32:26.183Z,62.82
2016-12-04T00:33:26.511Z,62.43
2016-12-04T00:34:26.524Z,61.49
2016-12-04T00:35:26.540Z,62.43
2016-12-04T00:36:26.234Z,62.24
2016-12-04T00:37:26.250Z,61.77
2016-12-04T00:38:26.263Z,61.58
2016-12-04T00:39:26.273Z,61.3
2016-12-04T00:40:26.603Z,61.3
2016-12-04T00:41:26.614Z,61.96
2016-12-04T00:42:26.635Z,61.77
2016-12-04T00:43:26.332Z,61.96
2016-12-04T00:44:26.649Z,61.58
2016-12-04T00:45:26.667Z,61.58
2016-12-04T00:46:26.364Z,61.68
2016-12-04T00:47:26.693Z,62.43
2016-12-04T00:48:26.389Z,61.77
2016-12-04T00:49:26.399Z,62.05
2016-12-04T00:50:26.418Z,61.87
2016-12-04T00:51:26.427Z,61.77
2016-12-04T00:52:26.757Z,62.43
2016-12-04T00:53:26.452Z,62.43
2016-12-04T00:54:26.780Z,62.62
2016-12-04T00:55:26.480Z,62.05
2016-12-04T00:56:26.491Z,62.15
2016-12-04T00:57:26.821Z,62.82
2016-12-04T00:58:26.515Z,62.24
2016-12-04T00:59:26.845Z,62.05
2016-12-04T01:00:26.863Z,62.24
2016-12-04T01:01:26.870Z,62.24
2016-12-04T01:02:26.883Z,62.53
2016-12-04T01:03:26.584Z,62.24
2016-12-04T01:04:26.928Z,62.72
2016-12-04T01:05:26.920Z,62.53
2016-12-04T01:06:26.935Z,62.62
2016-12-04T01:07:26.947Z,62.34
2016-12-04T01:08:26.960Z,62.82
2016-12-04T01:09:26.656Z,62.34
2016-12-04T01:10:26.669Z,62.62
2016-12-04T01:11:26.683Z,62.62
2016-12-04T01:12:26.692Z,62.62
2016-12-04T01:13:27.021Z,62.82
2016-12-04T01:14:26.720Z,62.43
2016-12-04T01:15:27.047Z,62.82
2016-12-04T01:16:26.743Z,62.34
2016-12-04T01:17:26.756Z,62.62
2016-12-04T01:18:27.085Z,62.15
2016-12-04T01:19:27.127Z,62.62
2016-12-04T01:20:26.795Z,62.62
2016-12-04T01:21:26.805Z,62.72
2016-12-04T01:22:26.817Z,62.62
2016-12-04T01:23:27.147Z,62.82
2016-12-04T01:24:27.168Z,63.01
2016-12-04T01:25:26.866Z,62.82
2016-12-04T01:26:27.185Z,63.01
2016-12-04T01:27:27.197Z,63.01
2016-12-04T01:28:27.210Z,62.91
2016-12-04T01:29:27.224Z,63.73
2016-12-04T01:30:27.233Z,63.57
2016-12-04T01:31:26.930Z,63.82
2016-12-04T01:32:27.259Z,64.49
2016-12-04T01:33:27.273Z,64.3
2016-12-04T01:34:27.283Z,64.2
2016-12-04T01:35:26.981Z,64.2
2016-12-04T01:36:27.311Z,64.68
2016-12-04T01:37:27.008Z,63.64
2016-12-04T01:38:27.335Z,63.67
2016-12-04T01:39:27.346Z,63.57
2016-12-04T01:40:27.044Z,64.01
2016-12-04T01:41:27.373Z,63.92
2016-12-04T01:42:27.069Z,63.95
2016-12-04T01:43:27.082Z,64.3
2016-12-04T01:44:27.093Z,64.11
2016-12-04T01:45:27.424Z,64.11
2016-12-04T01:46:27.435Z,64.11
2016-12-04T01:47:27.450Z,64.39
2016-12-04T01:48:27.167Z,64.39
2016-12-04T01:49:27.158Z,64.39
2016-12-04T01:50:27.169Z,64.23
2016-12-04T01:51:27.503Z,63.39
2016-12-04T01:52:27.511Z,63.76
2016-12-04T01:53:27.208Z,63.57
2016-12-04T01:54:27.537Z,63.29
2016-12-04T01:55:27.548Z,63.57
2016-12-04T01:56:27.247Z,64.14
2016-12-04T01:57:27.257Z,64.33
2016-12-04T01:58:27.587Z,63.76
2016-12-04T01:59:27.283Z,63.76
2016-12-04T02:00:27.612Z,63.39
2016-12-04T02:01:27.624Z,63.29
2016-12-04T02:02:27.319Z,63.39
2016-12-04T02:03:27.647Z,63.76
2016-12-04T02:04:27.665Z,63.48
2016-12-04T02:05:27.677Z,63.39
2016-12-04T02:06:27.372Z,63.67
2016-12-04T02:07:27.700Z,63.85
2016-12-04T02:08:27.409Z,63.95
2016-12-04T02:09:27.422Z,64.14
2016-12-04T02:10:27.750Z,63.39
2016-12-04T02:11:27.751Z,62.72
2016-12-04T02:12:27.763Z,62.91
2016-12-04T02:13:27.459Z,62.15
2016-12-04T02:14:27.786Z,62.62
2016-12-04T02:15:27.805Z,62.91
2016-12-04T02:16:27.499Z,62.82
2016-12-04T02:17:27.508Z,62.91
2016-12-04T02:18:27.523Z,63.01
2016-12-04T02:19:27.535Z,63.1
2016-12-04T02:20:27.549Z,63.29
2016-12-04T02:21:27.560Z,63.01
2016-12-04T02:22:27.575Z,63.1
2016-12-04T02:23:27.586Z,63.1
2016-12-04T02:24:27.915Z,62.91
2016-12-04T02:25:27.927Z,63.1
2016-12-04T02:26:27.952Z,62.62
2016-12-04T02:27:27.634Z,62.53
2016-12-04T02:28:27.966Z,62.91
2016-12-04T02:29:27.979Z,63.39
2016-12-04T02:30:27.987Z,63.85
2016-12-04T02:31:27.688Z,63.29
2016-12-04T02:32:28.016Z,63.67
2016-12-04T02:33:28.030Z,64.04
2016-12-04T02:34:27.744Z,64.42
2016-12-04T02:35:28.052Z,64.42
2016-12-04T02:36:27.757Z,64.42
2016-12-04T02:37:27.765Z,64.23
2016-12-04T02:38:27.777Z,64.14
2016-12-04T02:39:27.787Z,64.9
2016-12-04T02:40:28.117Z,64.71
2016-12-04T02:41:27.813Z,64.81
2016-12-04T02:42:27.827Z,65.19
2016-12-04T02:43:27.840Z,65.19
2016-12-04T02:44:28.169Z,65.37
2016-12-04T02:45:28.178Z,65.66
2016-12-04T02:46:28.192Z,65.84
2016-12-04T02:47:28.207Z,66.57
2016-12-04T02:48:28.215Z,67.05
2016-12-04T02:49:28.229Z,67.14
2016-12-04T02:50:27.927Z,67.52
2016-12-04T02:51:27.956Z,67.71
2016-12-04T02:52:27.966Z,67.33
2016-12-04T02:53:28.278Z,67.33
2016-12-04T02:54:28.291Z,67.43
2016-12-04T02:55:28.016Z,67.71
2016-12-04T02:56:27.998Z,68.18
2016-12-04T02:57:28.011Z,67.61
2016-12-04T02:58:28.026Z,67.52
2016-12-04T02:59:28.036Z,67.9
2016-12-04T03:00:28.365Z,67.99
2016-12-04T03:01:28.377Z,67.52
2016-12-04T03:02:28.078Z,67.05
2016-12-04T03:03:28.086Z,67.36
2016-12-04T03:04:28.418Z,67.36
2016-12-04T03:05:28.112Z,67.27
2016-12-04T03:06:28.124Z,67.9
2016-12-04T03:07:28.452Z,68.08
2016-12-04T03:08:28.463Z,67.71
2016-12-04T03:09:28.165Z,67.08
2016-12-04T03:10:28.174Z,67.46
2016-12-04T03:11:28.502Z,67.36
2016-12-04T03:12:28.516Z,67.33
2016-12-04T03:13:28.527Z,67.52
2016-12-04T03:14:28.539Z,67.99
2016-12-04T03:15:28.549Z,67.8
2016-12-04T03:16:28.246Z,67.33
2016-12-04T03:17:28.262Z,67.27
2016-12-04T03:18:28.588Z,67.18
2016-12-04T03:19:28.601Z,67.18
2016-12-04T03:20:28.622Z,66.89
2016-12-04T03:21:28.319Z,67.55
2016-12-04T03:22:28.637Z,67.27
2016-12-04T03:23:28.651Z,67.65
2016-12-04T03:24:28.663Z,67.55
2016-12-04T03:25:28.366Z,67.65
2016-12-04T03:26:28.694Z,67.61
2016-12-04T03:27:28.384Z,67.93
2016-12-04T03:28:28.715Z,67.36
2016-12-04T03:29:28.722Z,67.27
2016-12-04T03:30:28.422Z,68.31
2016-12-04T03:31:28.434Z,68.37
2016-12-04T03:32:28.760Z,68.37
2016-12-04T03:33:28.458Z,68.21
2016-12-04T03:34:28.786Z,68.31
2016-12-04T03:35:28.799Z,68.37
2016-12-04T03:36:28.808Z,69.22
2016-12-04T03:37:28.507Z,69.41
2016-12-04T03:38:28.836Z,69.6
2016-12-04T03:39:28.850Z,69.51
2016-12-04T03:40:28.544Z,69.22
2016-12-04T03:41:28.876Z,69.32
2016-12-04T03:42:28.885Z,69.51
2016-12-04T03:43:28.583Z,69.79
2016-12-04T03:44:28.912Z,69.7
2016-12-04T03:45:28.606Z,69.22
2016-12-04T03:46:28.935Z,69.51
2016-12-04T03:47:28.947Z,69.51
2016-12-04T03:48:28.959Z,69.98
2016-12-04T03:49:28.658Z,70.07
2016-12-04T03:50:28.670Z,69.79
2016-12-04T03:51:28.996Z,69.98
2016-12-04T03:52:28.692Z,70.26
2016-12-04T03:53:29.018Z,69.32
2016-12-04T03:54:29.033Z,70.07
2016-12-04T03:55:29.046Z,70.07
2016-12-04T03:56:28.742Z,69.89
2016-12-04T03:57:28.754Z,69.89
2016-12-04T03:58:29.082Z,70.26
2016-12-04T03:59:28.777Z,69.98
2016-12-04T04:00:29.106Z,70.26
2016-12-04T04:01:29.117Z,70.36
2016-12-04T04:02:28.813Z,70.83
2016-12-04T04:03:28.848Z,71.02
2016-12-04T04:04:29.155Z,71.12
2016-12-04T04:05:28.851Z,71.59
2016-12-04T04:06:29.186Z,71.4
2016-12-04T04:07:28.875Z,71.31
2016-12-04T04:08:28.889Z,70.93
2016-12-04T04:09:29.219Z,71.69
2016-12-04T04:10:28.914Z,71.31
2016-12-04T04:11:29.240Z,70.64
2016-12-04T04:12:28.939Z,70.17
2016-12-04T04:13:29.267Z,70.17
2016-12-04T04:14:28.963Z,70.17
2016-12-04T04:15:28.977Z,70.07
2016-12-04T04:16:29.305Z,71.12
2016-12-04T04:17:29.001Z,70.74
2016-12-04T04:18:29.329Z,70.74
2016-12-04T04:19:29.340Z,70.83
2016-12-04T04:20:29.037Z,70.83
2016-12-04T04:21:29.365Z,70.93
2016-12-04T04:22:29.065Z,70.93
2016-12-04T04:23:29.389Z,70.83
2016-12-04T04:24:29.107Z,70.74
2016-12-04T04:25:29.116Z,70.83
2016-12-04T04:26:29.428Z,70.64
2016-12-04T04:27:29.124Z,70.17
2016-12-04T04:28:29.453Z,69.22
2016-12-04T04:29:29.463Z,69.32
2016-12-04T04:30:29.478Z,69.41
2016-12-04T04:31:29.490Z,69.6
2016-12-04T04:32:29.500Z,69.79
2016-12-04T04:33:29.197Z,69.51
2016-12-04T04:34:29.211Z,69.98
2016-12-04T04:35:29.539Z,69.89
2016-12-04T04:36:29.236Z,69.6
2016-12-04T04:37:29.559Z,69.32
2016-12-04T04:38:29.256Z,69.32
2016-12-04T04:39:29.272Z,68.94
2016-12-04T04:40:29.282Z,69.7
2016-12-04T04:41:29.610Z,69.41
2016-12-04T04:42:29.646Z,69.7
2016-12-04T04:43:29.644Z,69.41
2016-12-04T04:44:29.649Z,69.35
2016-12-04T04:45:29.349Z,69.41
2016-12-04T04:46:29.359Z,69.6
2016-12-04T04:47:29.371Z,69.79
2016-12-04T04:48:29.699Z,69.03
2016-12-04T04:49:29.713Z,68.98
2016-12-04T04:50:29.608Z,69.03
2016-12-04T04:51:29.736Z,68.98
2016-12-04T04:52:29.434Z,69.51
2016-12-04T04:53:29.459Z,69.6
2016-12-04T04:54:29.775Z,69.98
2016-12-04T04:55:29.784Z,70.07
2016-12-04T04:56:29.796Z,69.89
2016-12-04T04:57:29.493Z,69.89
2016-12-04T04:58:29.824Z,69.13
2016-12-04T04:59:29.520Z,69.51
2016-12-04T05:00:29.855Z,69.32
2016-12-04T05:01:29.860Z,69.22
2016-12-04T05:02:29.874Z,69.6
2016-12-04T05:03:29.901Z,69.51
2016-12-04T05:04:29.900Z,69.41
2016-12-04T05:05:29.595Z,69.6
2016-12-04T05:06:29.606Z,69.6
2016-12-04T05:07:29.618Z,69.41
2016-12-04T05:08:29.632Z,70.07
2016-12-04T05:09:29.960Z,69.79
2016-12-04T05:10:29.656Z,69.41
2016-12-04T05:11:29.983Z,70.07
2016-12-04T05:12:29.680Z,70.07
2016-12-04T05:13:30.010Z,69.51
2016-12-04T05:14:30.031Z,69.79
2016-12-04T05:15:30.035Z,69.6
2016-12-04T05:16:29.731Z,69.6
2016-12-04T05:17:30.059Z,69.41
2016-12-04T05:18:30.070Z,69.98
2016-12-04T05:19:30.088Z,70.26
2016-12-04T05:20:29.778Z,69.89
2016-12-04T05:21:30.122Z,69.41
2016-12-04T05:22:29.804Z,69.6
2016-12-04T05:23:29.821Z,69.6
2016-12-04T05:24:30.150Z,69.51
2016-12-04T05:25:30.156Z,69.6
2016-12-04T05:26:29.856Z,69.03
2016-12-04T05:27:30.182Z,69.03
2016-12-04T05:28:29.885Z,68.94
2016-12-04T05:29:29.892Z,69.79
2016-12-04T05:30:29.902Z,69.41
2016-12-04T05:31:29.915Z,69.32
2016-12-04T05:32:29.927Z,69.98
2016-12-04T05:33:30.255Z,69.89
2016-12-04T05:34:29.953Z,69.79
2016-12-04T05:35:30.279Z,69.6
2016-12-04T05:36:30.294Z,68.94
2016-12-04T05:37:29.988Z,69.03
2016-12-04T05:38:30.003Z,69.41
2016-12-04T05:39:30.327Z,68.75
2016-12-04T05:40:30.024Z,68.46
2016-12-04T05:41:30.353Z,68.37
2016-12-04T05:42:30.364Z,68.37
2016-12-04T05:43:30.385Z,68.4
2016-12-04T05:44:30.388Z,67.65
2016-12-04T05:45:30.401Z,67.18
2016-12-04T05:46:30.100Z,66.76
2016-12-04T05:47:30.425Z,67.46
2016-12-04T05:48:30.154Z,67.36
2016-12-04T05:49:30.457Z,67.08
2016-12-04T05:50:30.151Z,67.27
2016-12-04T05:51:30.163Z,67.18
2016-12-04T05:52:30.489Z,66.89
2016-12-04T05:53:30.184Z,66.89
2016-12-04T05:54:30.199Z,66.89
2016-12-04T05:55:30.207Z,66.57
2016-12-04T05:56:30.248Z,66.86
2016-12-04T05:57:30.235Z,66.76
2016-12-04T05:58:30.245Z,67.24
2016-12-04T05:59:30.575Z,67.61
2016-12-04T06:00:30.592Z,67.61
2016-12-04T06:01:30.283Z,67.24
2016-12-04T06:02:30.611Z,68.18
2016-12-04T06:03:30.305Z,67.33
2016-12-04T06:04:30.325Z,67.61
2016-12-04T06:05:30.647Z,67.33
2016-12-04T06:06:30.342Z,67.71
2016-12-04T06:07:30.673Z,67.33
2016-12-04T06:08:30.684Z,66.76
2016-12-04T06:09:30.380Z,66.76
2016-12-04T06:10:30.708Z,67.14
2016-12-04T06:11:30.410Z,67.14
2016-12-04T06:12:30.733Z,67.14
2016-12-04T06:13:30.428Z,67.05
2016-12-04T06:14:30.756Z,67.33
2016-12-04T06:15:30.769Z,66.86
2016-12-04T06:16:30.782Z,67.05
2016-12-04T06:17:30.477Z,67.52
2016-12-04T06:18:30.491Z,67.24
2016-12-04T06:19:30.501Z,67.14
2016-12-04T06:20:30.513Z,67.33
2016-12-04T06:21:30.528Z,68.27
2016-12-04T06:22:30.539Z,68.08
2016-12-04T06:23:30.868Z,68.46
2016-12-04T06:24:30.878Z,68.46
2016-12-04T06:25:30.580Z,69.41
2016-12-04T06:26:30.905Z,68.94
2016-12-04T06:27:30.600Z,68.84
2016-12-04T06:28:30.928Z,68.84
2016-12-04T06:29:30.624Z,68.94
2016-12-04T06:30:30.638Z,68.84
2016-12-04T06:31:30.648Z,68.37
2016-12-04T06:32:30.976Z,68.37
2016-12-04T06:33:30.680Z,69.13
2016-12-04T06:34:30.696Z,69.6
2016-12-04T06:35:31.011Z,69.51
2016-12-04T06:36:30.710Z,68.94
2016-12-04T06:37:31.038Z,68.18
2016-12-04T06:38:30.733Z,68.18
2016-12-04T06:39:30.746Z,69.03
2016-12-04T06:40:30.759Z,69.03
2016-12-04T06:41:31.092Z,68.84
2016-12-04T06:42:31.300Z,68.56
2016-12-04T06:43:30.795Z,68.37
2016-12-04T06:44:30.804Z,67.8
2016-12-04T06:45:31.135Z,68.37
2016-12-04T06:46:31.144Z,68.08
2016-12-04T06:47:30.861Z,67.43
2016-12-04T06:48:31.171Z,67.43
2016-12-04T06:49:30.869Z,67.9
2016-12-04T06:50:31.198Z,67.8
2016-12-04T06:51:31.214Z,67.9
2016-12-04T06:52:30.903Z,67.52
2016-12-04T06:53:31.229Z,67.24
2016-12-04T06:54:30.935Z,67.43
2016-12-04T06:55:31.257Z,67.36
2016-12-04T06:56:31.269Z,67.43
2016-12-04T06:57:31.279Z,67.24
2016-12-04T06:58:30.977Z,68.27
2016-12-04T06:59:31.302Z,69.13
2016-12-04T07:00:31.000Z,69.22
2016-12-04T07:01:31.329Z,69.13
2016-12-04T07:02:31.026Z,69.41
2016-12-04T07:03:31.036Z,69.32
2016-12-04T07:04:31.364Z,68.84
2016-12-04T07:05:31.374Z,68.08
2016-12-04T07:06:31.388Z,69.03
2016-12-04T07:07:31.082Z,68.75
2016-12-04T07:08:31.095Z,68.94
2016-12-04T07:09:31.423Z,68.75
2016-12-04T07:10:31.119Z,68.37
2016-12-04T07:11:31.133Z,68.08
2016-12-04T07:12:31.476Z,67.46
2016-12-04T07:13:31.471Z,67.27
2016-12-04T07:14:31.484Z,67.52
2016-12-04T07:15:31.499Z,67.33
2016-12-04T07:16:31.508Z,67.52
2016-12-04T07:17:31.520Z,67.52
2016-12-04T07:18:31.217Z,67.8
2016-12-04T07:19:31.228Z,67.99
2016-12-04T07:20:31.558Z,68.18
2016-12-04T07:21:31.257Z,68.18
2016-12-04T07:22:31.584Z,68.46
2016-12-04T07:23:31.294Z,68.37
2016-12-04T07:24:31.606Z,69.32
2016-12-04T07:25:31.620Z,69.13
2016-12-04T07:26:31.629Z,68.94
2016-12-04T07:27:31.328Z,69.22
2016-12-04T07:28:31.339Z,69.32
2016-12-04T07:29:31.665Z,68.65
2016-12-04T07:30:31.683Z,68.21
2016-12-04T07:31:31.377Z,67.46
2016-12-04T07:32:31.387Z,67.18
2016-12-04T07:33:31.731Z,67.36
2016-12-04T07:34:31.727Z,67.36
2016-12-04T07:35:31.423Z,67.74
2016-12-04T07:36:31.435Z,67.8
2016-12-04T07:37:31.766Z,67.9
2016-12-04T07:38:31.776Z,67.9
2016-12-04T07:39:31.478Z,68.37
2016-12-04T07:40:31.484Z,68.37
2016-12-04T07:41:31.810Z,68.31
2016-12-04T07:42:31.509Z,68.27
2016-12-04T07:43:31.847Z,68.46
2016-12-04T07:44:31.545Z,68.84
2016-12-04T07:45:31.860Z,69.79
2016-12-04T07:46:31.558Z,69.6
2016-12-04T07:47:31.885Z,69.51
2016-12-04T07:48:31.898Z,69.41
2016-12-04T07:49:31.595Z,69.51
2016-12-04T07:50:31.922Z,69.51
2016-12-04T07:51:31.623Z,68.94
2016-12-04T07:52:31.947Z,69.22
2016-12-04T07:53:31.641Z,68.94
2016-12-04T07:54:31.971Z,69.03
2016-12-04T07:55:31.987Z,68.75
2016-12-04T07:56:31.680Z,69.22
2016-12-04T07:57:32.008Z,68.65
2016-12-04T07:58:31.705Z,68.21
2016-12-04T07:59:31.717Z,68.12
2016-12-04T08:00:32.065Z,68.75
2016-12-04T08:01:31.742Z,68.56
2016-12-04T08:02:32.084Z,68.37
2016-12-04T08:03:31.774Z,69.32
2016-12-04T08:04:31.779Z,69.32
2016-12-04T08:05:32.108Z,69.32
2016-12-04T08:06:32.121Z,69.13
2016-12-04T08:07:32.133Z,69.41
2016-12-04T08:08:32.145Z,68.75
2016-12-04T08:09:31.844Z,69.13
2016-12-04T08:10:32.170Z,69.41
2016-12-04T08:11:31.869Z,69.89
2016-12-04T08:12:31.880Z,69.6
2016-12-04T08:13:31.897Z,68.94
2016-12-04T08:14:31.910Z,69.03
2016-12-04T08:15:32.233Z,68.18
2016-12-04T08:16:31.930Z,68.18
2016-12-04T08:17:31.940Z,68.46
2016-12-04T08:18:32.270Z,69.03
2016-12-04T08:19:31.966Z,69.13
2016-12-04T08:20:31.983Z,68.84
2016-12-04T08:21:31.991Z,68.94
2016-12-04T08:22:32.319Z,68.75
2016-12-04T08:23:32.017Z,68.56
2016-12-04T08:24:32.344Z,68.37
2016-12-04T08:25:32.041Z,68.46
2016-12-04T08:26:32.373Z,68.46
2016-12-04T08:27:32.407Z,68.08
2016-12-04T08:28:32.076Z,67.9
2016-12-04T08:29:32.404Z,67.93
2016-12-04T08:30:32.102Z,67.36
2016-12-04T08:31:32.432Z,66.99
2016-12-04T08:32:32.129Z,67.36
2016-12-04T08:33:32.141Z,67.36
2016-12-04T08:34:32.470Z,67.46
2016-12-04T08:35:32.166Z,67.36
2016-12-04T08:36:32.176Z,67.36
2016-12-04T08:37:32.507Z,67.27
2016-12-04T08:38:32.520Z,67.99
2016-12-04T08:39:32.218Z,68.08
2016-12-04T08:40:32.542Z,68.37
2016-12-04T08:41:32.241Z,68.27
2016-12-04T08:42:32.253Z,68.18
2016-12-04T08:43:32.579Z,68.12
2016-12-04T08:44:32.278Z,67.36
2016-12-04T08:45:32.605Z,67.36
2016-12-04T08:46:32.302Z,67.9
2016-12-04T08:47:32.317Z,68.02
2016-12-04T08:48:32.644Z,68.31
2016-12-04T08:49:32.338Z,67.36
2016-12-04T08:50:32.665Z,66.8
2016-12-04T08:51:32.391Z,66.89
2016-12-04T08:52:32.698Z,66.89
2016-12-04T08:53:32.389Z,66.7
2016-12-04T08:54:32.400Z,66.7
2016-12-04T08:55:32.415Z,67.18
2016-12-04T08:56:32.646Z,66.89
2016-12-04T08:57:32.457Z,67.08
2016-12-04T08:58:32.454Z,66.8
2016-12-04T08:59:32.782Z,66.89
2016-12-04T09:00:32.479Z,66.7
2016-12-04T09:01:32.489Z,66.8
2016-12-04T09:02:32.819Z,66.64
2016-12-04T09:03:32.832Z,65.69
2016-12-04T09:04:32.537Z,65.84
2016-12-04T09:05:32.863Z,66.03
2016-12-04T09:06:32.554Z,66.6
2016-12-04T09:07:32.566Z,65.94
2016-12-04T09:08:32.892Z,66.51
2016-12-04T09:09:32.903Z,66.89
2016-12-04T09:10:32.918Z,66.8
2016-12-04T09:11:32.614Z,66.41
2016-12-04T09:12:32.947Z,66.51
2016-12-04T09:13:32.958Z,66.6
2016-12-04T09:14:32.651Z,66.51
2016-12-04T09:15:32.667Z,66.6
2016-12-04T09:16:32.677Z,65.94
2016-12-04T09:17:32.706Z,66.6
2016-12-04T09:18:33.017Z,66.41
2016-12-04T09:19:32.722Z,66.22
2016-12-04T09:20:33.046Z,66.41
2016-12-04T09:21:32.740Z,66.22
2016-12-04T09:22:32.754Z,66.6
2016-12-04T09:23:32.764Z,66.7
2016-12-04T09:24:33.094Z,67.46
2016-12-04T09:25:33.110Z,67.36
2016-12-04T09:26:33.120Z,67.08
2016-12-04T09:27:32.813Z,66.41
2016-12-04T09:28:33.144Z,66.32
2016-12-04T09:29:33.162Z,66.03
2016-12-04T09:30:33.168Z,66.03
2016-12-04T09:31:32.866Z,66.8
2016-12-04T09:32:32.877Z,67.08
2016-12-04T09:33:33.209Z,66.8
2016-12-04T09:34:33.225Z,67.36
2016-12-04T09:35:32.917Z,67.36
2016-12-04T09:36:32.929Z,67.36
2016-12-04T09:37:32.971Z,67.65
2016-12-04T09:38:32.954Z,67.08
2016-12-04T09:39:32.968Z,67.55
2016-12-04T09:40:33.294Z,66.89
2016-12-04T09:41:32.992Z,66.41
2016-12-04T09:42:33.320Z,66.13
2016-12-04T09:43:33.335Z,65.66
2016-12-04T09:44:33.346Z,65.66
2016-12-04T09:45:33.358Z,65.56
2016-12-04T09:46:33.372Z,65.84
2016-12-04T09:47:33.067Z,66.7
2016-12-04T09:48:33.082Z,66.22
2016-12-04T09:49:33.091Z,66.51
2016-12-04T09:50:33.445Z,66.03
2016-12-04T09:51:33.433Z,65.84
2016-12-04T09:52:33.443Z,66.03
2016-12-04T09:53:33.146Z,66.32
2016-12-04T09:54:33.470Z,66.32
2016-12-04T09:55:33.484Z,66.89
2016-12-04T09:56:33.496Z,67.36
2016-12-04T09:57:33.507Z,67.18
2016-12-04T09:58:33.203Z,66.22
2016-12-04T09:59:33.215Z,66.13
2016-12-04T10:00:33.561Z,66.13
2016-12-04T10:01:33.559Z,65.75
2016-12-04T10:02:33.570Z,65.28
2016-12-04T10:03:33.265Z,65.84
2016-12-04T10:04:33.595Z,66.32
2016-12-04T10:05:33.295Z,66.7
2016-12-04T10:06:33.619Z,65.84
2016-12-04T10:07:33.639Z,65.75
2016-12-04T10:08:33.648Z,66.03
2016-12-04T10:09:33.340Z,65.94
2016-12-04T10:10:33.671Z,65.28
2016-12-04T10:11:33.686Z,65.56
2016-12-04T10:12:33.695Z,65.66
2016-12-04T10:13:33.746Z,66.41
2016-12-04T10:14:33.402Z,66.13
2016-12-04T10:15:33.416Z,65.69
2016-12-04T10:16:33.432Z,65.59
2016-12-04T10:17:33.443Z,65.66
2016-12-04T10:18:33.453Z,65.75
2016-12-04T10:19:33.468Z,65.37
2016-12-04T10:20:33.796Z,65.59
2016-12-04T10:21:33.808Z,65.75
2016-12-04T10:22:33.504Z,65.47
2016-12-04T10:23:33.832Z,65.84
2016-12-04T10:24:33.846Z,66.22
2016-12-04T10:25:33.857Z,66.7
2016-12-04T10:26:33.871Z,66.13
2016-12-04T10:27:33.568Z,66.51
2016-12-04T10:28:33.580Z,66.32
2016-12-04T10:29:33.914Z,66.03
2016-12-04T10:30:33.614Z,66.13
2016-12-04T10:31:33.620Z,66.03
2016-12-04T10:32:33.630Z,66.22
2016-12-04T10:33:33.961Z,66.22
2016-12-04T10:34:33.972Z,66.03
2016-12-04T10:35:33.987Z,66.13
2016-12-04T10:36:33.682Z,65.66
2016-12-04T10:37:34.008Z,65.75
2016-12-04T10:38:34.022Z,65.56
2016-12-04T10:39:34.042Z,65.37
2016-12-04T10:40:34.047Z,65.56
2016-12-04T10:41:34.073Z,65.66
2016-12-04T10:42:34.073Z,65.56
2016-12-04T10:43:33.791Z,65.12
2016-12-04T10:44:34.096Z,65.5
2016-12-04T10:45:34.112Z,64.74
2016-12-04T10:46:34.128Z,65.47
2016-12-04T10:47:34.133Z,66.13
2016-12-04T10:48:34.147Z,66.51
2016-12-04T10:49:33.845Z,66.99
2016-12-04T10:50:33.859Z,66.7
2016-12-04T10:51:33.871Z,66.7
2016-12-04T10:52:34.200Z,66.32
2016-12-04T10:53:34.212Z,66.13
2016-12-04T10:54:33.908Z,66.32
2016-12-04T10:55:33.921Z,66.6
2016-12-04T10:56:34.247Z,66.41
2016-12-04T10:57:33.953Z,66.32
2016-12-04T10:58:34.274Z,66.32
2016-12-04T10:59:34.292Z,66.7
2016-12-04T11:00:33.981Z,66.8
2016-12-04T11:01:34.332Z,66.51
2016-12-04T11:02:34.006Z,67.36
2016-12-04T11:03:34.335Z,67.18
2016-12-04T11:04:34.345Z,67.46
2016-12-04T11:05:34.045Z,67.08
2016-12-04T11:06:34.063Z,67.08
2016-12-04T11:07:34.382Z,67.36
2016-12-04T11:08:34.083Z,67.55
2016-12-04T11:09:34.414Z,67.18
2016-12-04T11:10:34.422Z,66.32
2016-12-04T11:11:34.125Z,66.51
2016-12-04T11:12:34.459Z,65.75
2016-12-04T11:13:34.155Z,66.41
2016-12-04T11:14:34.472Z,66.32
2016-12-04T11:15:34.170Z,66.32
2016-12-04T11:16:34.183Z,66.6
2016-12-04T11:17:34.510Z,65.84
2016-12-04T11:18:34.524Z,65.56
2016-12-04T11:19:34.221Z,65.84
2016-12-04T11:20:34.547Z,66.8
2016-12-04T11:21:34.245Z,66.89
2016-12-04T11:22:34.256Z,66.6
2016-12-04T11:23:34.272Z,67.08
2016-12-04T11:24:34.282Z,65.94
2016-12-04T11:25:34.612Z,66.6
2016-12-04T11:26:34.307Z,65.94
2016-12-04T11:27:34.320Z,65.56
2016-12-04T11:28:34.334Z,65.75
2016-12-04T11:29:34.345Z,65.75
2016-12-04T11:30:34.675Z,65.84
2016-12-04T11:31:34.368Z,66.13
2016-12-04T11:32:34.382Z,66.51
2016-12-04T11:33:34.400Z,65.37
2016-12-04T11:34:34.732Z,65.75
2016-12-04T11:35:34.418Z,65.75
2016-12-04T11:36:34.750Z,65.19
2016-12-04T11:37:34.445Z,65.56
2016-12-04T11:38:34.458Z,65.47
2016-12-04T11:39:34.787Z,65.47
2016-12-04T11:40:34.484Z,65.28
2016-12-04T11:41:34.811Z,65.03
2016-12-04T11:42:34.508Z,64.84
2016-12-04T11:43:34.835Z,65.37
2016-12-04T11:44:34.533Z,65.66
2016-12-04T11:45:34.873Z,65.84
2016-12-04T11:46:34.875Z,65.94
2016-12-04T11:47:34.570Z,65.94
2016-12-04T11:48:34.900Z,66.6
2016-12-04T11:49:34.911Z,66.6
2016-12-04T11:50:34.926Z,66.41
2016-12-04T11:51:34.619Z,66.32
2016-12-04T11:52:34.637Z,66.6
2016-12-04T11:53:34.644Z,66.22
2016-12-04T11:54:34.657Z,66.41
2016-12-04T11:55:34.689Z,66.32
2016-12-04T11:56:35.001Z,66.32
2016-12-04T11:57:35.043Z,65.66
2016-12-04T11:58:34.709Z,65.56
2016-12-04T11:59:34.721Z,65.94
2016-12-04T12:00:34.731Z,66.03
2016-12-04T12:01:35.063Z,65.94
2016-12-04T12:02:35.076Z,66.51
2016-12-04T12:03:34.775Z,66.7
2016-12-04T12:04:34.782Z,67.08
2016-12-04T12:05:35.131Z,66.89
2016-12-04T12:06:35.124Z,66.89
2016-12-04T12:07:35.138Z,66.6
2016-12-04T12:08:35.152Z,66.13
2016-12-04T12:09:34.846Z,66.51
2016-12-04T12:10:34.859Z,65.84
2016-12-04T12:11:35.186Z,66.41
2016-12-04T12:12:34.887Z,66.41
2016-12-04T12:13:34.899Z,65.75
2016-12-04T12:14:35.226Z,66.6
2016-12-04T12:15:35.243Z,66.41
2016-12-04T12:16:35.260Z,66.51
2016-12-04T12:17:35.266Z,66.41
2016-12-04T12:18:34.961Z,66.41
2016-12-04T12:19:34.972Z,66.7
2016-12-04T12:20:34.985Z,66.6
2016-12-04T12:21:35.316Z,66.89
2016-12-04T12:22:35.012Z,65.84
2016-12-04T12:23:35.344Z,65.75
2016-12-04T12:24:35.352Z,65.37
2016-12-04T12:25:35.051Z,65.37
2016-12-04T12:26:35.380Z,65.37
2016-12-04T12:27:35.392Z,65.47
2016-12-04T12:28:35.117Z,65.84
2016-12-04T12:29:35.415Z,65.75
2016-12-04T12:30:35.433Z,65.66
2016-12-04T12:31:35.441Z,65.37
2016-12-04T12:32:35.138Z,65.56
2016-12-04T12:33:35.467Z,65.37
2016-12-04T12:34:35.486Z,65.37
2016-12-04T12:35:35.174Z,65.75
2016-12-04T12:36:35.537Z,65.56
2016-12-04T12:37:35.515Z,64.84
2016-12-04T12:38:35.549Z,64.65
2016-12-04T12:39:35.543Z,64.08
2016-12-04T12:40:35.553Z,64.14
2016-12-04T12:41:35.568Z,64.14
2016-12-04T12:42:35.263Z,64.93
2016-12-04T12:43:35.594Z,64.93
2016-12-04T12:44:35.291Z,63.98
2016-12-04T12:45:35.300Z,63.98
2016-12-04T12:46:35.318Z,64.04
2016-12-04T12:47:35.331Z,64.81
2016-12-04T12:48:35.675Z,64.61
2016-12-04T12:49:35.668Z,64.65
2016-12-04T12:50:35.714Z,64.36
2016-12-04T12:51:35.692Z,64.27
2016-12-04T12:52:35.389Z,64.04
2016-12-04T12:53:35.729Z,64.33
2016-12-04T12:54:35.416Z,65
2016-12-04T12:55:35.425Z,65.28